createdAt,value
2023-04-30T00:00:54.882Z,9.719280
2023-04-30T00:01:54.948Z,9.719227
2023-04-30T00:02:54.955Z,9.719374
2023-04-30T00:03:54.966Z,9.719295
2023-04-30T00:04:54.922Z,9.719303
2023-04-30T00:05:54.914Z,9.719028
2023-04-30T00:06:54.841Z,9.719073
2023-04-30T00:07:54.837Z,9.719048
2023-04-30T00:08:54.804Z,9.719320
2023-04-30T00:09:54.944Z,9.719174
2023-04-30T00:10:54.793Z,9.719264
2023-04-30T00:11:54.775Z,9.719219
2023-04-30T00:12:54.793Z,9.719252
2023-04-30T00:13:54.901Z,9.719123
2023-04-30T00:14:54.758Z,9.719139
2023-04-30T00:15:54.766Z,9.719054
2023-04-30T00:16:54.739Z,9.718855
2023-04-30T00:17:54.778Z,9.718818
2023-04-30T00:18:54.737Z,9.718982
2023-04-30T00:19:54.944Z,9.718838
2023-04-30T00:20:54.692Z,9.719141
2023-04-30T00:21:54.685Z,9.719325
2023-04-30T00:22:54.671Z,9.719315
2023-04-30T00:23:54.659Z,9.719219
2023-04-30T00:24:54.665Z,9.718823
2023-04-30T00:25:54.637Z,9.719183
2023-04-30T00:26:54.669Z,9.719089
2023-04-30T00:27:54.623Z,9.718871
2023-04-30T00:28:54.616Z,9.718339
2023-04-30T00:29:54.780Z,9.718725
2023-04-30T00:30:54.610Z,9.719338
2023-04-30T00:31:54.630Z,9.719738
2023-04-30T00:32:54.616Z,9.719669
2023-04-30T00:33:54.575Z,9.719681
2023-04-30T00:34:54.552Z,9.719684
2023-04-30T00:35:54.554Z,9.719483
2023-04-30T00:36:54.532Z,9.719267
2023-04-30T00:37:54.517Z,9.719312
2023-04-30T00:38:54.508Z,9.719653
2023-04-30T00:39:54.616Z,9.719927
2023-04-30T00:40:54.518Z,9.719648
2023-04-30T00:41:54.508Z,9.719605
2023-04-30T00:42:54.457Z,9.719547
2023-04-30T00:43:54.459Z,9.719664
2023-04-30T00:44:54.449Z,9.719340
2023-04-30T00:45:54.513Z,9.718974
2023-04-30T00:46:54.458Z,9.718959
2023-04-30T00:47:54.452Z,9.719117
2023-04-30T00:48:54.412Z,9.719260
2023-04-30T00:49:54.629Z,9.719182
2023-04-30T00:50:54.402Z,9.719031
2023-04-30T00:51:54.434Z,9.719325
2023-04-30T00:52:54.365Z,9.719297
2023-04-30T00:53:54.359Z,9.719232
2023-04-30T00:54:54.434Z,9.719304
2023-04-30T00:55:54.337Z,9.719286
2023-04-30T00:56:54.328Z,9.719398
2023-04-30T00:57:54.321Z,9.719337
2023-04-30T00:58:54.322Z,9.719372
2023-04-30T00:59:55.561Z,9.719391
2023-04-30T01:00:54.301Z,9.719347
2023-04-30T01:01:54.286Z,9.719320
2023-04-30T01:02:54.393Z,9.719299
2023-04-30T01:03:54.262Z,9.719318
2023-04-30T01:04:54.271Z,9.719293
2023-04-30T01:05:54.311Z,9.719270
2023-04-30T01:06:54.218Z,9.719251
2023-04-30T01:07:54.220Z,9.719227
2023-04-30T01:08:54.217Z,9.719307
2023-04-30T01:09:54.519Z,9.719275
2023-04-30T01:10:54.201Z,9.719321
2023-04-30T01:11:54.171Z,9.719254
2023-04-30T01:12:54.239Z,9.719342
2023-04-30T01:13:54.201Z,9.719352
2023-04-30T01:14:54.141Z,9.719281
2023-04-30T01:15:54.150Z,9.719361
2023-04-30T01:16:54.134Z,9.719224
2023-04-30T01:17:54.207Z,9.719283
2023-04-30T01:18:54.253Z,9.719222
2023-04-30T01:19:54.245Z,9.719265
2023-04-30T01:20:54.080Z,9.719255
2023-04-30T01:21:54.070Z,9.719235
2023-04-30T01:22:54.086Z,9.719261
2023-04-30T01:23:54.064Z,9.719314
2023-04-30T01:24:54.061Z,9.719375
2023-04-30T01:25:54.041Z,9.719265
2023-04-30T01:26:54.022Z,9.719449
2023-04-30T01:27:54.047Z,9.719349
2023-04-30T01:28:54.009Z,9.719215
2023-04-30T01:29:54.206Z,9.719425
2023-04-30T01:30:54.018Z,9.719463
2023-04-30T01:31:53.970Z,9.719434
2023-04-30T01:32:54.417Z,9.719385
2023-04-30T01:33:53.973Z,9.719362
2023-04-30T01:34:53.944Z,9.719406
2023-04-30T01:35:53.924Z,9.719554
2023-04-30T01:36:53.919Z,9.719392
2023-04-30T01:37:53.907Z,9.719442
2023-04-30T01:38:53.925Z,9.719327
2023-04-30T01:39:54.012Z,9.719246
2023-04-30T01:40:53.904Z,9.719232
2023-04-30T01:41:53.881Z,9.719112
2023-04-30T01:42:53.874Z,9.719174
2023-04-30T01:43:53.887Z,9.719147
2023-04-30T01:44:53.858Z,9.719160
2023-04-30T01:45:53.878Z,9.719206
2023-04-30T01:46:53.830Z,9.719214
2023-04-30T01:47:53.926Z,9.719234
2023-04-30T01:48:53.803Z,9.719315
2023-04-30T01:49:53.937Z,9.719373
2023-04-30T01:50:53.811Z,9.719326
2023-04-30T01:51:53.797Z,9.719277
2023-04-30T01:52:53.817Z,9.719256
2023-04-30T01:53:53.764Z,9.719285
2023-04-30T01:54:53.752Z,9.719345
2023-04-30T01:55:53.761Z,9.719383
2023-04-30T01:56:53.730Z,9.719307
2023-04-30T01:57:53.701Z,9.719264
2023-04-30T01:58:53.768Z,9.719283
2023-04-30T01:59:53.840Z,9.719317
2023-04-30T02:00:53.692Z,9.719328
2023-04-30T02:01:53.774Z,9.719356
2023-04-30T02:02:53.751Z,9.719292
2023-04-30T02:03:53.814Z,9.719279
2023-04-30T02:04:53.660Z,9.719296
2023-04-30T02:05:53.646Z,9.719319
2023-04-30T02:06:53.687Z,9.719349
2023-04-30T02:07:53.622Z,9.719331
2023-04-30T02:08:53.607Z,9.719306
2023-04-30T02:09:53.841Z,9.719258
2023-04-30T02:10:53.639Z,9.719226
2023-04-30T02:11:53.572Z,9.719285
2023-04-30T02:12:53.581Z,9.719299
2023-04-30T02:13:53.547Z,9.719274
2023-04-30T02:14:53.555Z,9.719310
2023-04-30T02:15:53.545Z,9.719351
2023-04-30T02:16:53.525Z,9.719335
2023-04-30T02:17:53.544Z,9.719286
2023-04-30T02:18:53.509Z,9.719342
2023-04-30T02:19:53.664Z,9.719278
2023-04-30T02:20:53.507Z,9.719286
2023-04-30T02:21:53.481Z,9.719306
2023-04-30T02:22:53.487Z,9.719298
2023-04-30T02:23:53.452Z,9.719205
2023-04-30T02:24:53.466Z,9.719132
2023-04-30T02:25:53.437Z,9.719268
2023-04-30T02:26:53.418Z,9.719396
2023-04-30T02:27:53.418Z,9.719500
2023-04-30T02:28:53.440Z,9.719247
2023-04-30T02:29:53.485Z,9.719198
2023-04-30T02:30:53.392Z,9.719249
2023-04-30T02:31:53.422Z,9.719232
2023-04-30T02:32:53.421Z,9.719163
2023-04-30T02:33:53.385Z,9.719230
2023-04-30T02:34:53.357Z,9.719181
2023-04-30T02:35:53.332Z,9.719122
2023-04-30T02:36:53.365Z,9.719187
2023-04-30T02:37:53.324Z,9.719137
2023-04-30T02:38:53.314Z,9.719137
2023-04-30T02:39:53.500Z,9.719044
2023-04-30T02:40:53.292Z,9.719052
2023-04-30T02:41:53.272Z,9.719057
2023-04-30T02:42:53.258Z,9.718974
2023-04-30T02:43:53.248Z,9.718999
2023-04-30T02:44:53.254Z,9.719197
2023-04-30T02:45:53.305Z,9.718987
2023-04-30T02:46:53.233Z,9.718739
2023-04-30T02:47:53.285Z,9.719180
2023-04-30T02:48:53.211Z,9.719275
2023-04-30T02:49:53.408Z,9.719249
2023-04-30T02:50:53.243Z,9.719191
2023-04-30T02:51:53.212Z,9.719176
2023-04-30T02:52:53.172Z,9.719417
2023-04-30T02:53:53.170Z,9.719322
2023-04-30T02:54:53.149Z,9.719286
2023-04-30T02:55:53.193Z,9.719221
2023-04-30T02:56:53.143Z,9.719264
2023-04-30T02:57:53.142Z,9.719274
2023-04-30T02:58:53.130Z,9.718872
2023-04-30T02:59:53.498Z,9.719155
2023-04-30T03:00:53.111Z,9.719218
2023-04-30T03:01:53.107Z,9.719216
2023-04-30T03:02:53.223Z,9.719379
2023-04-30T03:03:53.108Z,9.719389
2023-04-30T03:04:53.054Z,9.719295
2023-04-30T03:05:53.048Z,9.719311
2023-04-30T03:06:53.041Z,9.719292
2023-04-30T03:07:53.032Z,9.719211
2023-04-30T03:08:53.025Z,9.719152
2023-04-30T03:09:53.149Z,9.719198
2023-04-30T03:10:52.981Z,9.719274
2023-04-30T03:11:53.014Z,9.719319
2023-04-30T03:12:52.968Z,9.719193
2023-04-30T03:14:24.986Z,9.719295
2023-04-30T03:14:52.953Z,9.719230
2023-04-30T03:15:52.960Z,9.719375
2023-04-30T03:16:52.919Z,9.719202
2023-04-30T03:17:52.967Z,9.719322
2023-04-30T03:18:52.907Z,9.719350
2023-04-30T03:19:53.069Z,9.719327
2023-04-30T03:20:52.887Z,9.719285
2023-04-30T03:21:52.876Z,9.719339
2023-04-30T03:22:52.878Z,9.719187
2023-04-30T03:23:52.845Z,9.719333
2023-04-30T03:24:52.873Z,9.719286
2023-04-30T03:25:52.836Z,9.719219
2023-04-30T03:26:52.935Z,9.719147
2023-04-30T03:27:52.820Z,9.719297
2023-04-30T03:28:52.802Z,9.719337
2023-04-30T03:29:53.129Z,9.719501
2023-04-30T03:30:52.791Z,9.719336
2023-04-30T03:31:52.996Z,9.719371
2023-04-30T03:32:52.878Z,9.719522
2023-04-30T03:33:52.809Z,9.719342
2023-04-30T03:34:52.769Z,9.719282
2023-04-30T03:35:52.738Z,9.719389
2023-04-30T03:36:52.748Z,9.719419
2023-04-30T03:37:52.748Z,9.719464
2023-04-30T03:38:52.714Z,9.719480
2023-04-30T03:39:52.955Z,9.719531
2023-04-30T03:40:52.719Z,9.719539
2023-04-30T03:41:52.688Z,9.719407
2023-04-30T03:42:52.685Z,9.719314
2023-04-30T03:43:52.667Z,9.719303
2023-04-30T03:44:52.670Z,9.719346
2023-04-30T03:45:52.774Z,9.719407
2023-04-30T03:46:52.659Z,9.719366
2023-04-30T03:47:52.703Z,9.719368
2023-04-30T03:48:52.613Z,9.719310
2023-04-30T03:49:52.789Z,9.719402
2023-04-30T03:50:52.660Z,9.719316
2023-04-30T03:51:52.614Z,9.719236
2023-04-30T03:52:52.589Z,9.719251
2023-04-30T03:53:52.563Z,9.719294
2023-04-30T03:54:52.582Z,9.719362
2023-04-30T03:55:52.564Z,9.719367
2023-04-30T03:56:52.669Z,9.719290
2023-04-30T03:57:52.523Z,9.719642
2023-04-30T03:58:52.513Z,9.719782
2023-04-30T03:59:52.620Z,9.719431
2023-04-30T04:00:52.504Z,9.719057
2023-04-30T04:01:52.526Z,9.718964
2023-04-30T04:02:52.568Z,9.719379
2023-04-30T04:03:52.531Z,9.719281
2023-04-30T04:04:52.476Z,9.719003
2023-04-30T04:05:52.531Z,9.718904
2023-04-30T04:06:52.472Z,9.719048
2023-04-30T04:07:52.451Z,9.719186
2023-04-30T04:08:52.447Z,9.719307
2023-04-30T04:09:52.722Z,9.719042
2023-04-30T04:10:52.415Z,9.719205
2023-04-30T04:11:52.508Z,9.719487
2023-04-30T04:12:52.387Z,9.719525
2023-04-30T04:13:52.405Z,9.719316
2023-04-30T04:14:52.368Z,9.719252
2023-04-30T04:15:52.471Z,9.719151
2023-04-30T04:16:52.377Z,9.719136
2023-04-30T04:17:52.501Z,9.719397
2023-04-30T04:18:52.355Z,9.719738
2023-04-30T04:19:52.461Z,9.719506
2023-04-30T04:20:52.322Z,9.719183
2023-04-30T04:21:52.325Z,9.719044
2023-04-30T04:22:52.299Z,9.719002
2023-04-30T04:23:52.286Z,9.719142
2023-04-30T04:24:52.390Z,9.718899
2023-04-30T04:25:52.308Z,9.719052
2023-04-30T04:26:52.259Z,9.719213
2023-04-30T04:27:52.270Z,9.719178
2023-04-30T04:28:52.237Z,9.719219
2023-04-30T04:29:52.384Z,9.719222
2023-04-30T04:30:52.217Z,9.719174
2023-04-30T04:31:52.221Z,9.719116
2023-04-30T04:32:52.282Z,9.718906
2023-04-30T04:33:52.263Z,9.719198
2023-04-30T04:34:52.195Z,9.719223
2023-04-30T04:35:52.188Z,9.719118
2023-04-30T04:36:52.148Z,9.719132
2023-04-30T04:37:52.188Z,9.719159
2023-04-30T04:38:52.144Z,9.719147
2023-04-30T04:39:52.358Z,9.719097
2023-04-30T04:40:52.146Z,9.719246
2023-04-30T04:41:52.118Z,9.719233
2023-04-30T04:42:52.095Z,9.719188
2023-04-30T04:43:52.107Z,9.719005
2023-04-30T04:44:52.082Z,9.719147
2023-04-30T04:45:52.136Z,9.719221
2023-04-30T04:46:52.230Z,9.719205
2023-04-30T04:47:52.234Z,9.719193
2023-04-30T04:48:52.046Z,9.719260
2023-04-30T04:49:52.231Z,9.719202
2023-04-30T04:50:52.044Z,9.719359
2023-04-30T04:51:52.093Z,9.719153
2023-04-30T04:52:52.066Z,9.719245
2023-04-30T04:53:51.998Z,9.719212
2023-04-30T04:54:51.985Z,9.719207
2023-04-30T04:55:51.969Z,9.719207
2023-04-30T04:56:51.991Z,9.719235
2023-04-30T04:57:51.970Z,9.719189
2023-04-30T04:58:51.946Z,9.719293
2023-04-30T04:59:51.989Z,9.719124
2023-04-30T05:00:51.926Z,9.719210
2023-04-30T05:01:52.016Z,9.719190
2023-04-30T05:02:52.011Z,9.719217
2023-04-30T05:03:51.969Z,9.719178
2023-04-30T05:04:51.900Z,9.719117
2023-04-30T05:05:51.872Z,9.719220
2023-04-30T05:06:51.866Z,9.719272
2023-04-30T05:07:51.869Z,9.719196
2023-04-30T05:08:51.854Z,9.719266
2023-04-30T05:09:51.893Z,9.719161
2023-04-30T05:10:51.836Z,9.719186
2023-04-30T05:11:51.811Z,9.719125
2023-04-30T05:12:51.806Z,9.719024
2023-04-30T05:13:51.811Z,9.719097
2023-04-30T05:14:51.785Z,9.719165
2023-04-30T05:15:51.804Z,9.719182
2023-04-30T05:16:51.774Z,9.719150
2023-04-30T05:17:51.806Z,9.719127
2023-04-30T05:18:51.734Z,9.719035
2023-04-30T05:19:53.063Z,9.719165
2023-04-30T05:20:51.748Z,9.719154
2023-04-30T05:21:51.741Z,9.719192
2023-04-30T05:22:51.719Z,9.719199
2023-04-30T05:23:51.693Z,9.719100
2023-04-30T05:24:51.682Z,9.719163
2023-04-30T05:25:51.687Z,9.719167
2023-04-30T05:26:51.680Z,9.719158
2023-04-30T05:27:51.656Z,9.719142
2023-04-30T05:28:51.639Z,9.719183
2023-04-30T05:29:51.633Z,9.719227
2023-04-30T05:30:51.616Z,9.719235
2023-04-30T05:31:52.804Z,9.719206
2023-04-30T05:32:51.605Z,9.719210
2023-04-30T05:33:51.593Z,9.719250
2023-04-30T05:34:51.581Z,9.719260
2023-04-30T05:35:51.585Z,9.719160
2023-04-30T05:36:51.575Z,9.719112
2023-04-30T05:37:51.560Z,9.719219
2023-04-30T05:38:51.542Z,9.719274
2023-04-30T05:39:51.556Z,9.719312
2023-04-30T05:40:51.519Z,9.719302
2023-04-30T05:41:52.879Z,9.719291
2023-04-30T05:42:52.511Z,9.719292
2023-04-30T05:43:51.496Z,9.719492
2023-04-30T05:44:51.504Z,9.719368
2023-04-30T05:45:51.510Z,9.719249
2023-04-30T05:46:51.476Z,9.719417
2023-04-30T05:47:51.554Z,9.719347
2023-04-30T05:48:51.448Z,9.719398
2023-04-30T05:49:51.481Z,9.719380
2023-04-30T05:50:51.431Z,9.719377
2023-04-30T05:51:51.449Z,9.719398
2023-04-30T05:52:51.406Z,9.719527
2023-04-30T05:53:51.408Z,9.719505
2023-04-30T05:54:51.417Z,9.719316
2023-04-30T05:55:51.400Z,9.719226
2023-04-30T05:56:51.374Z,9.719242
2023-04-30T05:57:51.364Z,9.719298
2023-04-30T05:58:51.362Z,9.719448
2023-04-30T05:59:51.427Z,9.719561
2023-04-30T06:00:51.327Z,9.719545
2023-04-30T06:01:51.412Z,9.719387
2023-04-30T06:02:51.345Z,9.719438
2023-04-30T06:03:51.356Z,9.719462
2023-04-30T06:04:51.361Z,9.719475
2023-04-30T06:05:51.342Z,9.719421
2023-04-30T06:06:51.292Z,9.719485
2023-04-30T06:07:51.276Z,9.719366
2023-04-30T06:08:51.274Z,9.719439
2023-04-30T06:09:51.250Z,9.719455
2023-04-30T06:10:51.294Z,9.719334
2023-04-30T06:11:51.226Z,9.719481
2023-04-30T06:12:51.254Z,9.719257
2023-04-30T06:13:51.225Z,9.719361
2023-04-30T06:14:51.193Z,9.719406
2023-04-30T06:15:51.220Z,9.719548
2023-04-30T06:16:51.217Z,9.719354
2023-04-30T06:17:51.288Z,9.719273
2023-04-30T06:18:53.449Z,9.719191
2023-04-30T06:19:52.253Z,9.719305
2023-04-30T06:20:51.136Z,9.719396
2023-04-30T06:21:51.127Z,9.719280
2023-04-30T06:22:51.139Z,9.719121
2023-04-30T06:23:51.107Z,9.719451
2023-04-30T06:24:51.097Z,9.719246
2023-04-30T06:25:51.092Z,9.719461
2023-04-30T06:26:51.100Z,9.719178
2023-04-30T06:27:51.067Z,9.719231
2023-04-30T06:28:51.060Z,9.719152
2023-04-30T06:29:51.079Z,9.719121
2023-04-30T06:30:51.080Z,9.719079
2023-04-30T06:31:51.144Z,9.719125
2023-04-30T06:32:52.120Z,9.719170
2023-04-30T06:33:51.011Z,9.719101
2023-04-30T06:34:51.040Z,9.719005
2023-04-30T06:35:51.031Z,9.719027
2023-04-30T06:36:50.985Z,9.718962
2023-04-30T06:37:50.976Z,9.719027
2023-04-30T06:38:50.960Z,9.719024
2023-04-30T06:39:50.942Z,9.719006
2023-04-30T06:40:50.943Z,9.719049
2023-04-30T06:41:50.932Z,9.719056
2023-04-30T06:42:50.919Z,9.719001
2023-04-30T06:43:51.041Z,9.719069
2023-04-30T06:44:50.909Z,9.719080
2023-04-30T06:45:50.961Z,9.719103
2023-04-30T06:46:50.900Z,9.719143
2023-04-30T06:47:50.969Z,9.719075
2023-04-30T06:48:50.879Z,9.719067
2023-04-30T06:49:50.842Z,9.719022
2023-04-30T06:50:51.839Z,9.719002
2023-04-30T06:51:50.863Z,9.719088
2023-04-30T06:52:50.832Z,9.719155
2023-04-30T06:53:50.806Z,9.719081
2023-04-30T06:54:50.865Z,9.719163
2023-04-30T06:55:50.794Z,9.719239
2023-04-30T06:56:50.780Z,9.719231
2023-04-30T06:57:50.770Z,9.719175
2023-04-30T06:58:50.757Z,9.719090
2023-04-30T06:59:50.767Z,9.719203
2023-04-30T07:00:50.818Z,9.719160
2023-04-30T07:01:50.767Z,9.719230
2023-04-30T07:02:50.848Z,9.719337
2023-04-30T07:03:50.823Z,9.719222
2023-04-30T07:04:50.739Z,9.719146
2023-04-30T07:05:50.674Z,9.719122
2023-04-30T07:06:50.677Z,9.719109
2023-04-30T07:07:50.673Z,9.719087
2023-04-30T07:08:50.666Z,9.719166
2023-04-30T07:09:51.704Z,9.719193
2023-04-30T07:10:50.656Z,9.719060
2023-04-30T07:11:50.683Z,9.718995
2023-04-30T07:12:50.618Z,9.719090
2023-04-30T07:13:50.604Z,9.719285
2023-04-30T07:14:50.608Z,9.719140
2023-04-30T07:15:50.655Z,9.719226
2023-04-30T07:16:50.587Z,9.719168
2023-04-30T07:17:50.641Z,9.719349
2023-04-30T07:18:50.567Z,9.719289
2023-04-30T07:19:50.542Z,9.719307
2023-04-30T07:20:50.533Z,9.719305
2023-04-30T07:21:50.525Z,9.719144
2023-04-30T07:22:50.518Z,9.719296
2023-04-30T07:23:50.527Z,9.719412
2023-04-30T07:24:50.524Z,9.719325
2023-04-30T07:25:50.501Z,9.719319
2023-04-30T07:26:50.487Z,9.719292
2023-04-30T07:27:50.472Z,9.719165
2023-04-30T07:28:50.482Z,9.719130
2023-04-30T07:29:50.705Z,9.719244
2023-04-30T07:30:50.446Z,9.719211
2023-04-30T07:31:50.433Z,9.719244
2023-04-30T07:32:50.455Z,9.719306
2023-04-30T07:33:50.416Z,9.719254
2023-04-30T07:34:50.419Z,9.719154
2023-04-30T07:35:50.396Z,9.719284
2023-04-30T07:36:50.385Z,9.719260
2023-04-30T07:37:50.448Z,9.719261
2023-04-30T07:38:50.375Z,9.719136
2023-04-30T07:39:50.357Z,9.718990
2023-04-30T07:40:50.340Z,9.718967
2023-04-30T07:41:50.360Z,9.718962
2023-04-30T07:42:50.378Z,9.718957
2023-04-30T07:43:50.308Z,9.719412
2023-04-30T07:44:50.312Z,9.719374
2023-04-30T07:45:50.369Z,9.719242
2023-04-30T07:46:50.288Z,9.719208
2023-04-30T07:47:50.343Z,9.719251
2023-04-30T07:48:50.284Z,9.719143
2023-04-30T07:49:50.263Z,9.719205
2023-04-30T07:50:52.584Z,9.719125
2023-04-30T07:51:51.251Z,9.719265
2023-04-30T07:52:50.232Z,9.719329
2023-04-30T07:53:50.211Z,9.719568
2023-04-30T07:54:50.226Z,9.719509
2023-04-30T07:55:50.231Z,9.719191
2023-04-30T07:56:50.176Z,9.719110
2023-04-30T07:57:50.218Z,9.719334
2023-04-30T07:58:50.182Z,9.719266
2023-04-30T07:59:51.424Z,9.719253
2023-04-30T08:00:51.144Z,9.719264
2023-04-30T08:01:50.191Z,9.719235
2023-04-30T08:02:50.320Z,9.719244
2023-04-30T08:03:50.218Z,9.719096
2023-04-30T08:04:50.106Z,9.719064
2023-04-30T08:05:50.111Z,9.719252
2023-04-30T08:06:50.277Z,9.719245
2023-04-30T08:07:50.076Z,9.719232
2023-04-30T08:08:50.573Z,9.719097
2023-04-30T08:09:51.057Z,9.719183
2023-04-30T08:10:50.097Z,9.719134
2023-04-30T08:11:50.059Z,9.719179
2023-04-30T08:12:50.049Z,9.719138
2023-04-30T08:13:50.036Z,9.719193
2023-04-30T08:14:50.020Z,9.719040
2023-04-30T08:15:50.021Z,9.719218
2023-04-30T08:16:50.145Z,9.719201
2023-04-30T08:17:50.073Z,9.719200
2023-04-30T08:18:49.983Z,9.719286
2023-04-30T08:19:49.977Z,9.719219
2023-04-30T08:20:49.997Z,9.719200
2023-04-30T08:21:49.977Z,9.719188
2023-04-30T08:22:49.959Z,9.719268
2023-04-30T08:23:49.932Z,9.719197
2023-04-30T08:24:49.914Z,9.719254
2023-04-30T08:25:49.902Z,9.719273
2023-04-30T08:26:49.938Z,9.719188
2023-04-30T08:27:49.906Z,9.719136
2023-04-30T08:28:49.883Z,9.719178
2023-04-30T08:29:49.881Z,9.719230
2023-04-30T08:30:49.876Z,9.719139
2023-04-30T08:31:49.998Z,9.719216
2023-04-30T08:32:49.903Z,9.719178
2023-04-30T08:33:49.821Z,9.719180
2023-04-30T08:34:49.813Z,9.719190
2023-04-30T08:35:49.810Z,9.719257
2023-04-30T08:36:49.846Z,9.719133
2023-04-30T08:37:49.789Z,9.719177
2023-04-30T08:38:49.772Z,9.719097
2023-04-30T08:39:49.760Z,9.719148
2023-04-30T08:40:51.939Z,9.719193
2023-04-30T08:41:50.770Z,9.719222
2023-04-30T08:42:49.750Z,9.719123
2023-04-30T08:43:49.757Z,9.719106
2023-04-30T08:44:49.721Z,9.719117
2023-04-30T08:45:49.719Z,9.719233
2023-04-30T08:46:49.698Z,9.719195
2023-04-30T08:47:49.747Z,9.719136
2023-04-30T08:48:49.720Z,9.719088
2023-04-30T08:49:49.666Z,9.719111
2023-04-30T08:50:49.666Z,9.719209
2023-04-30T08:51:49.679Z,9.719211
2023-04-30T08:52:49.665Z,9.719315
2023-04-30T08:53:49.638Z,9.719165
2023-04-30T08:54:49.649Z,9.719096
2023-04-30T08:55:49.663Z,9.719092
2023-04-30T08:56:49.601Z,9.719279
2023-04-30T08:57:49.599Z,9.719250
2023-04-30T08:58:49.600Z,9.719241
2023-04-30T08:59:49.572Z,9.719210
2023-04-30T09:00:49.588Z,9.719177
2023-04-30T09:01:52.037Z,9.719209
2023-04-30T09:02:49.650Z,9.719296
2023-04-30T09:03:49.616Z,9.719198
2023-04-30T09:04:49.526Z,9.719234
2023-04-30T09:05:49.580Z,9.719205
2023-04-30T09:06:49.578Z,9.719336
2023-04-30T09:08:02.599Z,9.719337
2023-04-30T09:08:51.478Z,9.719286
2023-04-30T09:09:49.538Z,9.719254
2023-04-30T09:10:49.475Z,9.719308
2023-04-30T09:11:49.456Z,9.719245
2023-04-30T09:12:49.438Z,9.719207
2023-04-30T09:13:49.430Z,9.719385
2023-04-30T09:15:21.367Z,9.719348
2023-04-30T09:15:49.469Z,9.719293
2023-04-30T09:16:49.445Z,9.719314
2023-04-30T09:17:49.434Z,9.719367
2023-04-30T09:18:49.397Z,9.719429
2023-04-30T09:19:49.427Z,9.719284
2023-04-30T09:20:49.402Z,9.719320
2023-04-30T09:21:49.373Z,9.719357
2023-04-30T09:22:49.562Z,9.719044
2023-04-30T09:23:49.346Z,9.719108
2023-04-30T09:24:49.335Z,9.719205
2023-04-30T09:25:49.346Z,9.719106
2023-04-30T09:26:49.346Z,9.719053
2023-04-30T09:27:49.304Z,9.719252
2023-04-30T09:28:49.300Z,9.719169
2023-04-30T09:29:49.290Z,9.719109
2023-04-30T09:30:49.301Z,9.719249
2023-04-30T09:31:49.309Z,9.719115
2023-04-30T09:32:49.293Z,9.719164
2023-04-30T09:33:49.249Z,9.719178
2023-04-30T09:34:49.278Z,9.719248
2023-04-30T09:35:49.251Z,9.719301
2023-04-30T09:36:49.220Z,9.719166
2023-04-30T09:37:49.244Z,9.719192
2023-04-30T09:38:49.216Z,9.719126
2023-04-30T09:39:49.178Z,9.719151
2023-04-30T09:40:49.196Z,9.719111
2023-04-30T09:41:49.167Z,9.719021
2023-04-30T09:42:49.158Z,9.719264
2023-04-30T09:43:49.157Z,9.719132
2023-04-30T09:44:49.143Z,9.719098
2023-04-30T09:45:49.129Z,9.719149
2023-04-30T09:46:49.172Z,9.719149
2023-04-30T09:47:49.176Z,9.719118
2023-04-30T09:48:49.102Z,9.719146
2023-04-30T09:49:49.085Z,9.719148
2023-04-30T09:50:49.098Z,9.719154
2023-04-30T09:51:49.085Z,9.719193
2023-04-30T09:52:49.079Z,9.719166
2023-04-30T09:53:49.075Z,9.719203
2023-04-30T09:54:49.083Z,9.719174
2023-04-30T09:55:49.124Z,9.719186
2023-04-30T09:56:49.027Z,9.719190
2023-04-30T09:57:49.023Z,9.719197
2023-04-30T09:58:49.061Z,9.719131
2023-04-30T09:59:49.056Z,9.719173
2023-04-30T10:00:49.023Z,9.719215
2023-04-30T10:01:49.024Z,9.719245
2023-04-30T10:02:49.040Z,9.719264
2023-04-30T10:03:48.979Z,9.719233
2023-04-30T10:04:48.974Z,9.719228
2023-04-30T10:05:48.955Z,9.719224
2023-04-30T10:06:49.084Z,9.719143
2023-04-30T10:07:48.999Z,9.719262
2023-04-30T10:08:48.915Z,9.719193
2023-04-30T10:09:48.917Z,9.719213
2023-04-30T10:10:48.911Z,9.719269
2023-04-30T10:11:48.869Z,9.719146
2023-04-30T10:12:48.898Z,9.719238
2023-04-30T10:13:48.841Z,9.719204
2023-04-30T10:14:48.881Z,9.719224
2023-04-30T10:15:48.880Z,9.719217
2023-04-30T10:16:48.936Z,9.719176
2023-04-30T10:17:48.880Z,9.719171
2023-04-30T10:18:48.845Z,9.719185
2023-04-30T10:19:48.802Z,9.719262
2023-04-30T10:20:48.814Z,9.719203
2023-04-30T10:21:48.815Z,9.719241
2023-04-30T10:22:48.790Z,9.719259
2023-04-30T10:23:48.787Z,9.719254
2023-04-30T10:24:48.758Z,9.719252
2023-04-30T10:25:48.849Z,9.719205
2023-04-30T10:26:48.769Z,9.719199
2023-04-30T10:27:49.804Z,9.719195
2023-04-30T10:28:48.763Z,9.719079
2023-04-30T10:29:48.691Z,9.719193
2023-04-30T10:30:48.696Z,9.719260
2023-04-30T10:31:48.743Z,9.719160
2023-04-30T10:32:48.732Z,9.719196
2023-04-30T10:33:48.687Z,9.719187
2023-04-30T10:34:48.690Z,9.719214
2023-04-30T10:35:48.677Z,9.719234
2023-04-30T10:36:48.734Z,9.719151
2023-04-30T10:37:48.621Z,9.719147
2023-04-30T10:38:48.675Z,9.719190
2023-04-30T10:39:48.670Z,9.719150
2023-04-30T10:40:48.588Z,9.719102
2023-04-30T10:41:48.634Z,9.719038
2023-04-30T10:42:48.568Z,9.719140
2023-04-30T10:43:48.584Z,9.719248
2023-04-30T10:44:48.545Z,9.719241
2023-04-30T10:45:48.539Z,9.719051
2023-04-30T10:46:48.531Z,9.719066
2023-04-30T10:47:48.559Z,9.719075
2023-04-30T10:48:48.538Z,9.719172
2023-04-30T10:49:48.523Z,9.719208
2023-04-30T10:50:48.503Z,9.719109
2023-04-30T10:51:48.529Z,9.719058
2023-04-30T10:52:48.497Z,9.719031
2023-04-30T10:53:48.467Z,9.719133
2023-04-30T10:54:48.487Z,9.719120
2023-04-30T10:55:48.481Z,9.719123
2023-04-30T10:56:48.456Z,9.719083
2023-04-30T10:57:48.481Z,9.719133
2023-04-30T10:58:48.422Z,9.719090
2023-04-30T10:59:48.402Z,9.719094
2023-04-30T11:00:48.464Z,9.719221
2023-04-30T11:01:48.555Z,9.719069
2023-04-30T11:02:48.453Z,9.719228
2023-04-30T11:03:48.397Z,9.719152
2023-04-30T11:04:48.420Z,9.719156
2023-04-30T11:05:48.359Z,9.719184
2023-04-30T11:06:48.505Z,9.719138
2023-04-30T11:07:48.349Z,9.719295
2023-04-30T11:08:48.319Z,9.719315
2023-04-30T11:09:48.368Z,9.719144
2023-04-30T11:10:48.327Z,9.719150
2023-04-30T11:11:48.391Z,9.719399
2023-04-30T11:12:48.294Z,9.719360
2023-04-30T11:13:48.295Z,9.719417
2023-04-30T11:14:48.292Z,9.719410
2023-04-30T11:15:48.339Z,9.719233
2023-04-30T11:16:48.280Z,9.719304
2023-04-30T11:17:48.251Z,9.719305
2023-04-30T11:18:48.255Z,9.719304
2023-04-30T11:19:48.242Z,9.719453
2023-04-30T11:20:48.272Z,9.719823
2023-04-30T11:21:48.221Z,9.719775
2023-04-30T11:22:48.185Z,9.719728
2023-04-30T11:23:48.165Z,9.719679
2023-04-30T11:24:48.190Z,9.719491
2023-04-30T11:25:48.187Z,9.719202
2023-04-30T11:26:48.173Z,9.719195
2023-04-30T11:27:48.228Z,9.719120
2023-04-30T11:28:48.148Z,9.719261
2023-04-30T11:29:48.102Z,9.719296
2023-04-30T11:30:48.115Z,9.719373
2023-04-30T11:31:48.198Z,9.719140
2023-04-30T11:32:48.240Z,9.719115
2023-04-30T11:33:48.110Z,9.719409
2023-04-30T11:34:48.061Z,9.719534
2023-04-30T11:35:48.052Z,9.719407
2023-04-30T11:36:48.061Z,9.719401
2023-04-30T11:37:48.080Z,9.719441
2023-04-30T11:38:48.025Z,9.719507
2023-04-30T11:39:48.014Z,9.719528
2023-04-30T11:40:48.030Z,9.719503
2023-04-30T11:41:47.996Z,9.719465
2023-04-30T11:42:47.994Z,9.719520
2023-04-30T11:43:47.991Z,9.719553
2023-04-30T11:44:47.974Z,9.719363